Time;durP1;ratioP1;P1;durP2;ratioP2;P2;SDS_P1;SDS_P2;PMS_P1;PMS_P2;Temp;Humidity;BMP_temperature;BMP_pressure;BME280_temperature;BME280_humidity;BME280_pressure;Samples;Min_cycle;Max_cycle;Signal;HPM_P1;HPM_P2
2022/09/09 00:01:52;;;;;;;3.53;2.58;;;11.90;99.90;;;;;;5084968;28;20032;-59
2022/09/09 00:04:28;;;;;;;2.95;2.30;;;11.90;99.90;;;;;;5081385;28;20028;-59
2022/09/09 00:07:18;;;;;;;5.13;2.42;;;11.80;99.90;;;;;;5080690;28;20020;-60
2022/09/09 00:09:46;;;;;;;3.63;2.30;;;11.80;99.90;;;;;;5082581;28;20028;-58
2022/09/09 00:12:14;;;;;;;3.15;1.83;;;11.80;99.90;;;;;;5083541;28;20028;-59
2022/09/09 00:14:49;;;;;;;3.05;1.95;;;11.70;99.90;;;;;;5082461;28;20035;-59
2022/09/09 00:17:22;;;;;;;3.92;2.22;;;11.70;99.90;;;;;;5078906;28;20111;-60
2022/09/09 00:20:00;;;;;;;4.75;2.40;;;11.80;99.90;;;;;;5082858;28;20036;-59
2022/09/09 00:22:30;;;;;;;3.70;2.53;;;11.80;99.90;;;;;;5080357;28;20032;-59
2022/09/09 00:25:13;;;;;;;3.38;2.25;;;11.80;99.90;;;;;;5078652;28;20020;-58
2022/09/09 00:27:45;;;;;;;3.45;2.10;;;11.80;99.90;;;;;;5083096;28;20111;-58
2022/09/09 00:30:26;;;;;;;3.55;2.05;;;11.80;99.90;;;;;;5061805;28;20033;-58
2022/09/09 00:32:59;;;;;;;5.00;1.92;;;11.70;99.90;;;;;;5076985;28;20070;-60
2022/09/09 00:35:33;;;;;;;3.80;1.80;;;11.70;99.90;;;;;;5067392;28;20063;-59
2022/09/09 00:38:10;;;;;;;5.68;2.20;;;11.60;99.90;;;;;;5056922;28;20037;-59
2022/09/09 00:40:48;;;;;;;2.50;2.00;;;11.50;99.90;;;;;;5056469;28;20080;-59
2022/09/09 00:43:37;;;;;;;2.40;1.83;;;11.50;99.90;;;;;;5061923;28;20373;-61
2022/09/09 00:46:23;;;;;;;3.15;2.00;;;11.40;99.90;;;;;;5059493;28;20048;-63
2022/09/09 00:49:04;;;;;;;2.50;2.30;;;11.40;99.90;;;;;;5060779;28;20029;-61
2022/09/09 00:51:46;;;;;;;4.65;2.80;;;11.40;99.90;;;;;;5059465;28;20522;-62
2022/09/09 00:54:33;;;;;;;5.50;2.85;;;11.40;99.90;;;;;;5083607;28;20399;-61
2022/09/09 00:57:23;;;;;;;5.57;2.50;;;11.40;99.90;;;;;;5083157;28;20143;-60
2022/09/09 00:59:55;;;;;;;3.78;2.42;;;11.40;99.90;;;;;;5070782;28;20025;-60
2022/09/09 01:02:43;;;;;;;3.90;2.10;;;11.30;99.90;;;;;;5081087;28;20429;-59
2022/09/09 01:05:19;;;;;;;4.53;2.20;;;11.30;99.90;;;;;;5080080;28;20079;-60
2022/09/09 01:07:48;;;;;;;3.58;2.20;;;11.40;99.90;;;;;;5081042;28;20035;-60
2022/09/09 01:10:37;;;;;;;3.00;1.92;;;11.40;99.90;;;;;;5081963;28;20038;-62
2022/09/09 01:13:12;;;;;;;3.38;2.00;;;11.40;99.90;;;;;;5082101;28;20062;-60
2022/09/09 01:15:40;;;;;;;2.20;2.00;;;11.40;99.90;;;;;;5083507;28;20027;-60
2022/09/09 01:18:12;;;;;;;2.35;2.15;;;11.50;99.90;;;;;;5063740;28;20044;-62
2022/09/09 01:21:02;;;;;;;2.58;2.22;;;11.50;99.90;;;;;;5083328;28;20071;-59
2022/09/09 01:23:28;;;;;;;2.58;1.95;;;11.60;99.90;;;;;;5077658;28;20035;-59
2022/09/09 01:26:21;;;;;;;2.22;1.75;;;11.70;99.90;;;;;;5083857;28;20028;-60
2022/09/09 01:28:52;;;;;;;2.35;1.88;;;11.70;99.90;;;;;;5081252;28;20097;-60
2022/09/09 01:31:20;;;;;;;;;;;11.80;99.90;;;;;;5078945;28;20067;-61
2022/09/09 01:33:45;;;;;;;3.67;1.70;;;11.90;99.90;;;;;;5079608;28;19915;-60
2022/09/09 01:36:40;;;;;;;2.95;1.77;;;12.00;99.90;;;;;;5079936;28;20408;-60
2022/09/09 01:39:06;;;;;;;3.40;1.90;;;12.10;99.90;;;;;;5079901;28;20081;-59
2022/09/09 01:41:32;;;;;;;4.78;2.25;;;12.10;99.90;;;;;;5080582;28;20025;-60
2022/09/09 01:43:57;;;;;;;3.80;1.63;;;12.20;99.90;;;;;;5080836;28;20093;-60
2022/09/09 01:46:23;;;;;;;2.45;1.60;;;12.20;99.90;;;;;;5078247;28;20025;-61
2022/09/09 01:48:54;;;;;;;5.00;1.58;;;12.20;99.90;;;;;;5080946;28;20027;-61
2022/09/09 01:51:20;;;;;;;3.70;1.95;;;12.30;99.90;;;;;;5082567;28;20016;-59
2022/09/09 01:53:46;;;;;;;2.15;1.48;;;12.30;99.90;;;;;;5080233;28;20780;-59
2022/09/09 01:56:44;;;;;;;3.78;1.70;;;12.30;99.90;;;;;;5078191;28;20145;-59
2022/09/09 01:59:37;;;;;;;7.47;2.22;;;12.20;99.90;;;;;;5075459;28;20051;-60
2022/09/09 02:02:35;;;;;;;5.50;1.85;;;12.20;99.90;;;;;;5079705;28;20099;-62
2022/09/09 02:05:21;;;;;;;7.50;2.00;;;12.20;99.90;;;;;;5080167;28;20514;-60
2022/09/09 02:07:56;;;;;;;5.30;1.73;;;12.20;99.90;;;;;;5078231;28;20028;-60
2022/09/09 02:10:32;;;;;;;3.22;1.60;;;12.10;99.90;;;;;;5082578;28;20022;-60
2022/09/09 02:13:10;;;;;;;3.78;1.50;;;12.10;99.90;;;;;;5079448;28;20479;-61
2022/09/09 02:15:47;;;;;;;3.13;2.17;;;12.10;99.90;;;;;;5078158;28;20023;-62
2022/09/09 02:18:16;;;;;;;3.03;1.90;;;12.10;99.90;;;;;;5079538;28;20040;-60
2022/09/09 02:20:44;;;;;;;3.17;2.17;;;12.00;99.90;;;;;;5077517;28;20519;-62
2022/09/09 02:23:11;;;;;;;3.13;2.00;;;12.00;99.90;;;;;;5076345;28;20064;-60
2022/09/09 02:25:41;;;;;;;6.18;2.35;;;12.00;99.90;;;;;;5079136;28;20043;-63
2022/09/09 02:28:09;;;;;;;4.55;1.92;;;12.00;99.90;;;;;;5081061;28;20038;-60
2022/09/09 02:30:37;;;;;;;2.65;2.10;;;12.00;99.90;;;;;;5064865;28;20484;-60
2022/09/09 02:33:07;;;;;;;4.53;2.15;;;11.90;99.90;;;;;;5079205;28;20043;-60
2022/09/09 02:35:34;;;;;;;4.95;1.80;;;11.90;99.90;;;;;;5064910;28;20039;-59
2022/09/09 02:38:04;;;;;;;2.15;1.85;;;11.90;99.90;;;;;;5081516;28;20029;-63
2022/09/09 02:40:29;;;;;;;5.50;2.10;;;11.90;99.90;;;;;;5077650;28;20028;-59
2022/09/09 02:42:55;;;;;;;6.35;2.55;;;11.90;99.90;;;;;;5083557;28;20532;-61
2022/09/09 02:45:27;;;;;;;1.83;1.67;;;11.90;99.90;;;;;;5079457;28;20020;-60
2022/09/09 02:48:23;;;;;;;4.50;1.88;;;12.00;99.90;;;;;;5074733;28;20036;-61
2022/09/09 02:51:06;;;;;;;3.08;1.85;;;12.00;99.90;;;;;;5078131;28;20408;-61
2022/09/09 02:54:16;;;;;;;2.58;1.73;;;12.00;99.90;;;;;;5080946;28;20081;-61
2022/09/09 02:56:50;;;;;;;7.72;2.10;;;12.00;99.90;;;;;;5077886;28;20462;-62
2022/09/09 02:59:17;;;;;;;9.85;2.15;;;12.00;99.90;;;;;;5079740;28;20079;-60
2022/09/09 03:01:43;;;;;;;3.85;2.03;;;12.00;99.90;;;;;;5075672;28;20032;-61
2022/09/09 03:04:09;;;;;;;2.28;1.90;;;12.00;99.90;;;;;;5076954;28;20028;-60
2022/09/09 03:06:35;;;;;;;4.38;2.55;;;12.00;99.90;;;;;;5079877;28;20050;-60
2022/09/09 03:09:02;;;;;;;4.80;2.00;;;12.00;99.90;;;;;;5077692;28;20032;-60
2022/09/09 03:11:28;;;;;;;3.45;1.95;;;12.10;99.90;;;;;;5079778;28;20077;-60
2022/09/09 03:13:55;;;;;;;5.22;2.05;;;12.10;99.90;;;;;;5077869;28;20624;-60
2022/09/09 03:16:22;;;;;;;3.63;1.88;;;12.10;99.90;;;;;;5079399;28;20480;-62
2022/09/09 03:18:47;;;;;;;6.25;1.90;;;12.20;99.90;;;;;;5081188;28;20032;-61
2022/09/09 03:21:14;;;;;;;3.78;2.17;;;12.20;99.90;;;;;;5080602;28;20024;-60
2022/09/09 03:23:40;;;;;;;3.70;2.03;;;12.20;99.90;;;;;;5073363;28;20156;-59
2022/09/09 03:26:05;;;;;;;4.65;2.72;;;12.20;99.90;;;;;;5078261;28;20115;-62
2022/09/09 03:28:31;;;;;;;3.88;2.05;;;12.20;99.90;;;;;;5077928;28;20123;-59
2022/09/09 03:31:05;;;;;;;2.38;1.80;;;12.20;99.90;;;;;;5079582;28;20537;-63
2022/09/09 03:33:31;;;;;;;2.67;2.13;;;12.30;99.90;;;;;;5075535;28;20105;-62
2022/09/09 03:35:57;;;;;;;6.13;2.10;;;12.30;99.90;;;;;;5074907;28;20484;-66
2022/09/09 03:38:24;;;;;;;3.53;2.05;;;12.30;99.90;;;;;;5081224;28;20020;-61
2022/09/09 03:40:58;;;;;;;3.58;1.90;;;12.30;99.90;;;;;;5076328;28;20055;-60
2022/09/09 03:43:26;;;;;;;2.92;2.00;;;12.40;99.90;;;;;;5081094;28;20056;-60
2022/09/09 03:45:52;;;;;;;2.90;1.63;;;12.40;99.90;;;;;;5078052;28;20494;-62
2022/09/09 03:48:18;;;;;;;4.35;2.30;;;12.50;99.90;;;;;;5083164;28;20051;-63
2022/09/09 03:50:46;;;;;;;2.67;1.83;;;12.50;99.90;;;;;;5076728;28;20120;-60
2022/09/09 03:53:12;;;;;;;3.22;2.25;;;12.60;99.90;;;;;;5075979;28;20479;-60
2022/09/09 03:55:37;;;;;;;2.50;2.10;;;12.60;99.90;;;;;;5078541;28;20039;-62
2022/09/09 03:58:03;;;;;;;2.92;2.10;;;12.60;99.90;;;;;;5081602;28;20033;-59
2022/09/09 04:00:30;;;;;;;2.15;1.88;;;12.60;99.90;;;;;;5084345;28;20023;-60
2022/09/09 04:02:56;;;;;;;2.97;1.92;;;12.60;99.90;;;;;;5082331;28;20165;-62
2022/09/09 04:05:22;;;;;;;4.10;1.90;;;12.50;99.90;;;;;;5079434;28;20115;-61
2022/09/09 04:07:47;;;;;;;4.30;2.60;;;12.50;99.90;;;;;;5084931;28;20189;-62
2022/09/09 04:10:13;;;;;;;3.50;2.33;;;12.50;99.90;;;;;;5083587;28;20533;-59
2022/09/09 04:12:39;;;;;;;2.50;1.92;;;12.50;99.90;;;;;;5083579;28;20033;-60
2022/09/09 04:15:05;;;;;;;2.05;1.85;;;12.60;99.90;;;;;;5082993;28;20159;-61
2022/09/09 04:17:31;;;;;;;3.67;2.00;;;12.60;99.90;;;;;;5080356;28;20028;-63
2022/09/09 04:19:57;;;;;;;5.25;2.50;;;12.60;99.90;;;;;;5082957;28;20032;-61
2022/09/09 04:22:22;;;;;;;4.28;2.20;;;12.60;99.90;;;;;;5082465;28;20154;-61
2022/09/09 04:24:48;;;;;;;2.08;1.80;;;12.60;99.90;;;;;;5081288;28;20028;-64
2022/09/09 04:27:13;;;;;;;5.22;2.33;;;12.60;99.90;;;;;;5082129;28;20020;-59
2022/09/09 04:29:39;;;;;;;4.32;2.42;;;12.60;99.90;;;;;;5079998;28;20039;-63
2022/09/09 04:32:05;;;;;;;4.45;2.10;;;12.50;99.90;;;;;;5081678;28;20357;-61
2022/09/09 04:34:31;;;;;;;5.00;2.22;;;12.50;99.90;;;;;;5082964;28;20131;-62
2022/09/09 04:36:56;;;;;;;2.75;2.55;;;12.50;99.90;;;;;;5078540;28;20058;-62
2022/09/09 04:39:22;;;;;;;8.98;2.72;;;12.50;99.90;;;;;;5079807;28;20050;-62
2022/09/09 04:41:48;;;;;;;3.08;2.30;;;12.50;99.90;;;;;;5083459;28;20036;-63
2022/09/09 04:44:14;;;;;;;3.88;2.65;;;12.50;99.90;;;;;;5080994;28;20033;-60
2022/09/09 04:46:41;;;;;;;2.50;2.22;;;12.50;99.90;;;;;;5079561;28;20037;-62
2022/09/09 04:49:06;;;;;;;4.80;2.92;;;12.50;99.90;;;;;;5081225;28;20139;-62
2022/09/09 04:51:32;;;;;;;3.65;2.65;;;12.60;99.90;;;;;;5084210;28;20451;-59
2022/09/09 04:53:58;;;;;;;2.88;2.60;;;12.60;99.90;;;;;;5078448;28;20036;-60
2022/09/09 04:56:26;;;;;;;3.38;2.70;;;12.70;99.90;;;;;;5081375;28;20520;-61
2022/09/09 04:58:52;;;;;;;4.38;2.50;;;12.70;99.90;;;;;;5078745;28;20127;-61
2022/09/09 05:01:20;;;;;;;7.00;2.67;;;12.70;99.90;;;;;;5084374;28;20514;-62
2022/09/09 05:03:47;;;;;;;4.15;2.92;;;12.80;99.90;;;;;;5080289;28;20086;-62
2022/09/09 05:06:15;;;;;;;3.50;3.20;;;12.80;99.90;;;;;;5081344;28;20012;-62
2022/09/09 05:08:42;;;;;;;2.90;2.55;;;12.80;99.90;;;;;;5080898;28;20129;-62
2022/09/09 05:11:20;;;;;;;3.67;2.95;;;12.90;99.90;;;;;;5077049;28;20028;-60
2022/09/09 05:13:46;;;;;;;3.33;2.97;;;12.90;99.90;;;;;;5066562;28;20509;-60
2022/09/09 05:16:13;;;;;;;5.93;2.70;;;13.00;99.90;;;;;;5078861;28;20378;-60
2022/09/09 05:18:40;;;;;;;4.47;2.38;;;13.00;99.90;;;;;;5084529;28;20062;-59
2022/09/09 05:21:06;;;;;;;3.28;2.40;;;13.10;99.90;;;;;;5080047;28;20391;-63
2022/09/09 05:23:33;;;;;;;4.15;2.72;;;13.10;99.90;;;;;;5080139;28;20032;-61
2022/09/09 05:26:00;;;;;;;4.00;2.70;;;13.10;99.90;;;;;;5080199;28;20387;-62
2022/09/09 05:28:27;;;;;;;4.13;2.42;;;13.20;99.90;;;;;;5079609;28;20036;-63
2022/09/09 05:31:00;;;;;;;3.53;2.80;;;13.20;99.90;;;;;;5080697;28;20016;-63
2022/09/09 05:33:27;;;;;;;5.75;2.83;;;13.20;99.90;;;;;;5079915;28;20017;-66
2022/09/09 05:36:01;;;;;;;4.70;2.67;;;13.20;99.90;;;;;;5082014;28;20027;-63
2022/09/09 05:38:28;;;;;;;2.90;2.63;;;13.30;99.90;;;;;;5079626;28;20079;-62
2022/09/09 05:40:55;;;;;;;3.13;2.50;;;13.30;99.90;;;;;;5079776;28;20028;-64
2022/09/09 05:43:20;;;;;;;3.97;2.40;;;13.30;99.90;;;;;;5076827;28;20032;-62
2022/09/09 05:45:47;;;;;;;2.67;2.47;;;13.40;99.90;;;;;;5079996;28;20032;-62
2022/09/09 05:48:15;;;;;;;3.50;2.95;;;13.40;99.90;;;;;;5078103;28;20039;-62
2022/09/09 05:50:41;;;;;;;2.88;2.47;;;13.40;99.90;;;;;;5075913;28;20035;-62
2022/09/09 05:53:06;;;;;;;4.82;2.90;;;13.50;99.90;;;;;;5082726;28;20024;-65
2022/09/09 05:55:32;;;;;;;4.53;2.88;;;13.50;99.90;;;;;;5079585;28;20514;-63
2022/09/09 05:57:57;;;;;;;4.03;2.80;;;13.60;99.90;;;;;;5074578;28;20361;-64
2022/09/09 06:00:23;;;;;;;4.30;2.70;;;13.80;99.90;;;;;;5077968;28;20016;-62
2022/09/09 06:02:52;;;;;;;2.97;2.67;;;13.80;99.90;;;;;;5078602;28;20111;-66
2022/09/09 06:05:19;;;;;;;5.45;3.03;;;13.90;99.90;;;;;;5074895;28;20129;-64
2022/09/09 06:07:45;;;;;;;3.85;2.50;;;14.00;99.90;;;;;;5078062;28;20024;-63
2022/09/09 06:10:13;;;;;;;4.63;2.78;;;14.00;99.90;;;;;;5078715;28;20036;-64
2022/09/09 06:12:39;;;;;;;4.30;2.78;;;14.20;99.90;;;;;;5084476;28;20031;-63
2022/09/09 06:15:05;;;;;;;3.30;2.38;;;14.30;99.90;;;;;;5080669;28;20032;-63
2022/09/09 06:17:31;;;;;;;3.00;2.47;;;14.40;99.90;;;;;;5078750;28;20082;-64
2022/09/09 06:19:56;;;;;;;2.20;2.00;;;14.60;99.90;;;;;;5078203;28;20142;-65
2022/09/09 06:22:22;;;;;;;2.30;2.08;;;14.70;99.90;;;;;;5082232;28;20467;-63
2022/09/09 06:24:48;;;;;;;3.53;2.22;;;14.80;99.90;;;;;;5079655;28;20078;-65
2022/09/09 06:27:13;;;;;;;2.83;1.98;;;15.00;99.90;;;;;;5068788;28;20024;-62
2022/09/09 06:29:39;;;;;;;5.13;2.67;;;15.10;99.90;;;;;;5079796;28;20042;-62
2022/09/09 06:32:05;;;;;;;3.85;2.30;;;15.20;99.90;;;;;;5076651;28;20043;-66
2022/09/09 06:34:30;;;;;;;3.53;2.40;;;15.20;99.90;;;;;;5079886;28;20075;-63
2022/09/09 06:36:58;;;;;;;2.42;1.90;;;15.30;99.90;;;;;;5082477;28;20093;-62
2022/09/09 06:39:23;;;;;;;3.95;2.03;;;15.60;99.90;;;;;;5078732;28;20027;-62
2022/09/09 06:41:49;;;;;;;2.38;1.50;;;16.00;99.90;;;;;;5085142;28;20032;-65
2022/09/09 06:44:16;;;;;;;1.88;1.58;;;17.10;99.90;;;;;;5080025;28;20056;-66
2022/09/09 06:46:43;;;;;;;2.70;1.70;;;17.80;99.90;;;;;;5079652;28;20094;-62
2022/09/09 06:49:09;;;;;;;3.15;1.60;;;17.80;99.90;;;;;;5079080;28;20074;-65
2022/09/09 06:51:37;;;;;;;6.97;1.98;;;17.50;99.90;;;;;;5079495;28;20031;-63
2022/09/09 06:54:04;;;;;;;2.22;1.83;;;17.10;99.90;;;;;;5078926;28;20382;-62
2022/09/09 06:56:35;;;;;;;2.38;1.80;;;16.80;99.90;;;;;;5074929;28;20057;-63
2022/09/09 06:59:05;;;;;;;3.35;1.70;;;16.60;99.90;;;;;;5079581;28;20062;-62
2022/09/09 07:01:37;;;;;;;3.67;1.90;;;16.40;99.90;;;;;;5078659;28;20055;-62
2022/09/09 07:04:07;;;;;;;2.20;2.00;;;16.30;99.90;;;;;;5080111;28;20025;-63
2022/09/09 07:06:35;;;;;;;3.30;1.80;;;16.40;99.90;;;;;;5076218;28;20025;-63
2022/09/09 07:09:03;;;;;;;2.55;1.55;;;17.10;99.90;;;;;;5079425;28;20037;-63
2022/09/09 07:11:31;;;;;;;4.40;1.70;;;17.90;99.90;;;;;;5075338;28;20020;-63
2022/09/09 07:13:58;;;;;;;2.65;1.63;;;18.90;99.90;;;;;;5083276;28;20039;-64
2022/09/09 07:16:25;;;;;;;2.35;1.98;;;20.10;99.90;;;;;;5077872;28;20475;-65
2022/09/09 07:18:52;;;;;;;2.78;1.83;;;20.50;99.90;;;;;;5080865;28;20036;-62
2022/09/09 07:21:20;;;;;;;2.60;1.80;;;20.10;99.90;;;;;;5078175;28;20047;-60
2022/09/09 07:23:46;;;;;;;5.07;1.92;;;19.70;99.90;;;;;;5078325;28;20171;-61
2022/09/09 07:26:19;;;;;;;2.83;1.77;;;19.30;99.90;;;;;;5075155;28;20115;-60
2022/09/09 07:28:44;;;;;;;2.65;1.70;;;19.80;99.90;;;;;;5078607;28;20428;-61
2022/09/09 07:31:22;;;;;;;3.65;1.92;;;20.20;99.90;;;;;;5077592;28;20036;-61
2022/09/09 07:33:48;;;;;;;3.05;1.90;;;20.60;99.90;;;;;;5076389;28;20112;-63
2022/09/09 07:36:17;;;;;;;2.13;1.45;;;20.90;99.90;;;;;;5084051;28;20025;-60
2022/09/09 07:38:48;;;;;;;3.53;2.05;;;20.90;99.90;;;;;;5081296;28;20503;-61
2022/09/09 07:41:23;;;;;;;4.43;1.90;;;20.70;99.90;;;;;;5083704;28;20063;-63
2022/09/09 07:43:49;;;;;;;2.50;1.83;;;20.00;99.90;;;;;;5083468;28;20028;-63
2022/09/09 07:46:17;;;;;;;3.05;1.85;;;19.60;99.90;;;;;;5078456;28;20138;-61
2022/09/09 07:48:51;;;;;;;3.42;1.70;;;19.30;99.90;;;;;;5059814;28;20066;-61
2022/09/09 07:51:22;;;;;;;4.78;1.58;;;19.70;99.90;;;;;;5082591;28;20024;-63
2022/09/09 07:53:48;;;;;;;;;;;20.00;99.90;;;;;;5083840;28;20515;-62
2022/09/09 07:56:18;;;;;;;2.15;1.30;;;20.10;99.90;;;;;;5080119;28;19916;-62
2022/09/09 07:58:48;;;;;;;2.13;1.60;;;20.20;99.90;;;;;;5079277;28;20573;-60
2022/09/09 08:01:22;;;;;;;2.03;1.50;;;20.10;99.90;;;;;;5080574;28;20437;-61
2022/09/09 08:04:03;;;;;;;2.78;1.52;;;19.80;99.90;;;;;;5082812;28;20032;-61
2022/09/09 08:06:33;;;;;;;3.28;1.73;;;19.50;99.90;;;;;;5087082;28;20040;-61
2022/09/09 08:08:58;;;;;;;3.47;1.75;;;19.20;99.90;;;;;;5081944;28;20043;-61
2022/09/09 08:11:26;;;;;;;3.20;1.70;;;18.90;99.90;;;;;;5085512;28;20027;-62
2022/09/09 08:13:53;;;;;;;2.38;1.60;;;18.70;99.90;;;;;;5081811;28;20024;-61
2022/09/09 08:16:25;;;;;;;4.20;1.60;;;18.70;99.90;;;;;;5080038;28;20031;-60
2022/09/09 08:18:54;;;;;;;1.40;1.20;;;19.40;99.90;;;;;;5082183;28;20024;-60
2022/09/09 08:21:29;;;;;;;1.60;1.05;;;20.80;99.90;;;;;;5082493;28;20032;-61
2022/09/09 08:23:56;;;;;;;3.47;1.25;;;22.10;99.90;;;;;;5083032;28;20070;-61
2022/09/09 08:26:25;;;;;;;2.28;1.10;;;23.20;99.90;;;;;;5078290;28;20040;-59
2022/09/09 08:28:53;;;;;;;2.65;0.93;;;23.60;90.20;;;;;;5082334;28;20394;-59
2022/09/09 08:31:21;;;;;;;3.22;1.02;;;23.80;87.10;;;;;;5083153;28;20550;-63
2022/09/09 08:33:47;;;;;;;1.20;0.75;;;23.90;90.20;;;;;;5079845;28;20484;-59
2022/09/09 08:36:16;;;;;;;2.42;1.15;;;23.60;87.90;;;;;;5078222;28;20025;-59
2022/09/09 08:38:43;;;;;;;2.65;1.05;;;23.50;91.60;;;;;;5086166;28;20028;-59
2022/09/09 08:41:36;;;;;;;4.30;1.20;;;23.40;95.00;;;;;;5079760;28;20064;-60
2022/09/09 08:44:07;;;;;;;2.75;0.80;;;23.80;92.50;;;;;;5083642;28;20046;-61
2022/09/09 08:46:46;;;;;;;2.38;1.23;;;24.10;90.60;;;;;;5080521;28;20059;-59
2022/09/09 08:49:37;;;;;;;1.60;0.80;;;24.30;91.00;;;;;;5083683;28;20379;-59
2022/09/09 08:52:12;;;;;;;1.27;0.77;;;24.50;90.70;;;;;;5081391;28;20052;-60
2022/09/09 08:54:39;;;;;;;2.83;0.90;;;24.80;78.50;;;;;;5086292;28;20428;-59
2022/09/09 08:57:18;;;;;;;1.70;0.88;;;25.00;85.00;;;;;;5078328;28;20040;-59
2022/09/09 08:59:43;;;;;;;1.83;0.90;;;24.90;84.50;;;;;;5062172;28;20061;-59
2022/09/09 09:02:21;;;;;;;1.08;0.70;;;24.80;83.10;;;;;;5080843;28;20028;-59
2022/09/09 09:05:19;;;;;;;1.55;0.68;;;24.40;81.20;;;;;;5083294;28;20032;-60
2022/09/09 09:07:48;;;;;;;1.08;0.50;;;24.20;82.70;;;;;;5081257;28;20037;-59
2022/09/09 09:10:35;;;;;;;3.33;0.70;;;24.00;81.60;;;;;;5078111;28;20059;-60
2022/09/09 09:13:02;;;;;;;1.70;0.70;;;23.70;86.30;;;;;;5077519;28;20016;-61
2022/09/09 09:15:36;;;;;;;1.98;0.65;;;23.80;91.80;;;;;;5074804;28;20383;-61
2022/09/09 09:18:05;;;;;;;1.92;0.60;;;23.90;90.60;;;;;;5075471;28;20499;-59
2022/09/09 09:20:51;;;;;;;2.15;0.63;;;24.20;83.20;;;;;;5079520;28;20032;-60
2022/09/09 09:23:35;;;;;;;1.88;0.73;;;24.40;82.70;;;;;;5074030;28;20037;-59
2022/09/09 09:26:01;;;;;;;1.90;0.65;;;24.30;79.20;;;;;;5081501;28;20111;-62
2022/09/09 09:28:33;;;;;;;1.27;0.52;;;24.20;77.90;;;;;;5079331;28;20191;-61
2022/09/09 09:31:07;;;;;;;2.55;0.75;;;23.90;81.70;;;;;;5080179;28;20034;-60
2022/09/09 09:33:54;;;;;;;2.22;0.50;;;23.90;82.30;;;;;;5087247;28;20074;-61
2022/09/09 09:36:33;;;;;;;3.65;0.60;;;23.90;81.40;;;;;;5081119;28;20105;-60
2022/09/09 09:39:01;;;;;;;2.30;0.70;;;24.00;80.50;;;;;;5077410;28;20112;-61
2022/09/09 09:41:35;;;;;;;2.33;0.63;;;24.00;79.70;;;;;;5078256;28;20507;-59
2022/09/09 09:44:02;;;;;;;1.33;0.60;;;24.30;78.30;;;;;;5077557;28;20025;-60
2022/09/09 09:46:28;;;;;;;3.38;0.75;;;24.60;77.10;;;;;;5079705;28;20032;-60
2022/09/09 09:49:07;;;;;;;1.80;0.50;;;25.20;77.10;;;;;;5078161;28;20374;-60
2022/09/09 09:51:35;;;;;;;2.07;0.73;;;26.00;72.00;;;;;;5079336;28;20012;-60
2022/09/09 09:54:09;;;;;;;1.92;0.60;;;26.90;69.20;;;;;;5082794;28;20353;-59
2022/09/09 09:56:35;;;;;;;2.58;0.80;;;27.00;64.60;;;;;;5082723;28;20117;-62
2022/09/09 09:59:01;;;;;;;3.28;0.57;;;26.90;66.30;;;;;;5076491;28;20029;-61
2022/09/09 10:01:33;;;;;;;1.67;0.68;;;27.00;64.10;;;;;;5080423;28;20055;-60
2022/09/09 10:04:23;;;;;;;1.85;0.60;;;27.30;64.50;;;;;;5082051;28;20037;-59
2022/09/09 10:06:50;;;;;;;1.95;0.80;;;28.30;61.60;;;;;;5081919;28;20024;-60
2022/09/09 10:09:32;;;;;;;1.90;0.63;;;29.20;57.80;;;;;;5083259;28;20040;-62
2022/09/09 10:12:25;;;;;;;2.55;0.80;;;30.60;57.70;;;;;;5080816;28;20385;-60
2022/09/09 10:14:59;;;;;;;2.45;0.68;;;31.30;54.60;;;;;;5073715;28;20357;-59
2022/09/09 10:17:34;;;;;;;1.73;0.60;;;31.60;53.50;;;;;;5056444;28;20020;-61
2022/09/09 10:20:21;;;;;;;1.30;0.50;;;31.10;52.40;;;;;;5080432;28;20573;-62
2022/09/09 10:22:59;;;;;;;2.05;0.65;;;30.80;53.40;;;;;;5080606;28;20082;-59
2022/09/09 10:25:39;;;;;;;1.80;0.70;;;31.10;52.30;;;;;;5076496;28;20039;-59
2022/09/09 10:28:47;;;;;;;1.85;0.50;;;31.60;52.00;;;;;;5078180;28;20024;-61
2022/09/09 10:31:19;;;;;;;3.30;0.40;;;31.70;52.30;;;;;;5078140;28;20024;-60
2022/09/09 10:33:49;;;;;;;2.45;0.60;;;31.50;52.00;;;;;;5073788;28;20078;-60
2022/09/09 10:36:24;;;;;;;2.40;0.47;;;31.70;51.60;;;;;;5080539;28;20017;-60
2022/09/09 10:39:00;;;;;;;2.38;0.65;;;31.90;49.60;;;;;;5078945;28;20044;-60
2022/09/09 10:41:34;;;;;;;1.85;0.50;;;32.10;50.10;;;;;;5078870;28;20058;-62
2022/09/09 10:44:17;;;;;;;1.90;0.57;;;31.90;49.30;;;;;;5073241;28;20031;-59
2022/09/09 10:46:55;;;;;;;1.33;0.55;;;30.80;50.80;;;;;;5074995;28;20055;-60
2022/09/09 10:49:45;;;;;;;1.20;0.40;;;29.70;52.30;;;;;;5075549;28;20102;-61
2022/09/09 10:52:44;;;;;;;1.07;0.50;;;29.10;53.50;;;;;;5075983;28;20085;-62
2022/09/09 10:55:17;;;;;;;1.23;0.50;;;28.60;55.70;;;;;;5078329;28;20379;-62
2022/09/09 10:57:47;;;;;;;1.92;0.60;;;28.30;55.50;;;;;;5077458;28;20043;-62
2022/09/09 11:00:23;;;;;;;3.50;0.50;;;28.20;56.60;;;;;;5077792;28;20030;-59
2022/09/09 11:02:56;;;;;;;2.47;0.60;;;28.10;56.40;;;;;;5073896;28;20052;-62
2022/09/09 11:05:31;;;;;;;2.83;0.60;;;28.10;56.40;;;;;;5073023;28;20023;-61
2022/09/09 11:08:11;;;;;;;2.97;1.23;;;28.70;54.50;;;;;;5076887;28;20021;-63
2022/09/09 11:10:52;;;;;;;2.47;0.60;;;29.50;54.50;;;;;;5080464;28;20032;-59
2022/09/09 11:13:32;;;;;;;0.77;0.50;;;30.00;55.00;;;;;;5081087;28;20078;-60
2022/09/09 11:16:22;;;;;;;1.20;0.50;;;30.70;52.90;;;;;;5081497;28;20352;-63
2022/09/09 11:18:49;;;;;;;2.15;0.50;;;31.50;51.20;;;;;;5084771;28;20029;-65
2022/09/09 11:21:26;;;;;;;0.88;0.50;;;32.10;48.50;;;;;;5082906;28;20048;-60
2022/09/09 11:24:13;;;;;;;1.75;0.50;;;32.50;47.10;;;;;;5084537;28;20068;-61
2022/09/09 11:26:50;;;;;;;2.60;0.60;;;32.80;47.90;;;;;;5081223;28;20054;-63
2022/09/09 11:29:30;;;;;;;2.20;0.45;;;32.10;46.70;;;;;;5083468;28;20075;-60
2022/09/09 11:32:05;;;;;;;;;;;31.70;46.60;;;;;;5083554;28;20115;-62
2022/09/09 11:34:42;;;;;;;1.33;0.40;;;31.20;50.10;;;;;;5081973;28;19965;-60
2022/09/09 11:37:27;;;;;;;2.30;0.70;;;31.50;50.40;;;;;;5080863;28;20028;-60
2022/09/09 11:40:17;;;;;;;3.60;0.68;;;31.80;48.80;;;;;;5086927;28;20418;-60
2022/09/09 11:42:43;;;;;;;1.10;0.50;;;30.30;48.50;;;;;;5081709;28;20185;-59
2022/09/09 11:45:25;;;;;;;2.65;0.70;;;27.60;52.80;;;;;;5084325;28;20147;-59
2022/09/09 11:47:53;;;;;;;3.30;0.88;;;26.40;56.50;;;;;;5083014;28;20031;-59
2022/09/09 11:50:19;;;;;;;0.90;0.60;;;25.60;57.80;;;;;;5080846;28;20044;-61
2022/09/09 11:52:47;;;;;;;1.33;0.52;;;25.30;62.00;;;;;;5083422;28;20438;-60
2022/09/09 11:55:26;;;;;;;2.97;0.70;;;25.50;62.10;;;;;;5079450;28;20033;-59
2022/09/09 11:57:58;;;;;;;2.92;0.77;;;25.80;59.80;;;;;;5082769;28;20050;-59
2022/09/09 12:00:44;;;;;;;1.60;0.60;;;25.70;58.60;;;;;;5083969;28;20020;-61
2022/09/09 12:03:44;;;;;;;3.33;0.70;;;25.90;59.30;;;;;;5060334;28;20028;-60
2022/09/09 12:06:30;;;;;;;2.20;0.50;;;25.90;61.10;;;;;;5066773;28;20123;-61
2022/09/09 12:09:05;;;;;;;1.67;0.47;;;26.70;58.80;;;;;;5084756;28;20111;-59
2022/09/09 12:11:30;;;;;;;2.42;0.70;;;27.30;57.60;;;;;;5082348;28;20029;-61
2022/09/09 12:14:00;;;;;;;1.65;0.57;;;27.30;55.10;;;;;;5080163;28;20430;-63
2022/09/09 12:16:38;;;;;;;2.25;0.70;;;27.50;56.60;;;;;;5081651;28;20107;-62
2022/09/09 12:19:18;;;;;;;1.05;0.40;;;27.90;56.00;;;;;;5082495;28;20044;-59
2022/09/09 12:22:22;;;;;;;1.60;0.45;;;28.70;56.10;;;;;;5065558;28;20025;-60
2022/09/09 12:25:22;;;;;;;1.95;0.57;;;29.40;52.80;;;;;;5007409;28;20037;-61
2022/09/09 12:28:09;;;;;;;1.20;0.60;;;30.00;52.90;;;;;;5081833;28;20025;-60
2022/09/09 12:30:48;;;;;;;2.58;0.85;;;30.60;50.60;;;;;;5079916;28;20458;-61
2022/09/09 12:33:17;;;;;;;0.73;0.50;;;31.10;50.30;;;;;;5079469;28;20036;-59
2022/09/09 12:35:49;;;;;;;1.30;0.70;;;31.40;48.40;;;;;;5081149;28;20040;-60
2022/09/09 12:38:31;;;;;;;2.85;0.55;;;31.60;47.80;;;;;;5080700;28;20086;-60
2022/09/09 12:40:58;;;;;;;2.85;0.75;;;31.60;47.50;;;;;;5073807;28;20059;-60
2022/09/09 12:43:28;;;;;;;2.78;0.60;;;31.40;46.90;;;;;;5081451;28;20028;-62
2022/09/09 12:46:03;;;;;;;2.55;0.80;;;30.90;48.30;;;;;;5079571;28;20025;-59
2022/09/09 12:48:44;;;;;;;1.60;0.50;;;30.60;49.80;;;;;;5082144;28;20107;-61
2022/09/09 12:51:25;;;;;;;1.27;0.60;;;30.10;50.90;;;;;;5081711;28;20043;-59
2022/09/09 12:53:51;;;;;;;;;;;30.10;50.80;;;;;;5059553;28;20074;-62
2022/09/09 12:56:22;;;;;;;0.80;0.43;;;30.20;49.80;;;;;;5078346;28;20321;-60
2022/09/09 12:58:51;;;;;;;2.83;0.60;;;30.00;48.10;;;;;;5081344;28;20092;-60
2022/09/09 13:01:22;;;;;;;1.70;0.65;;;29.80;48.20;;;;;;5078437;28;20024;-59
2022/09/09 13:03:48;;;;;;;1.38;0.50;;;29.50;48.60;;;;;;5082886;28;20039;-59
2022/09/09 13:06:26;;;;;;;3.00;0.70;;;28.70;52.50;;;;;;5080337;28;20016;-60
2022/09/09 13:08:54;;;;;;;2.22;0.52;;;28.10;54.20;;;;;;5082708;28;20028;-59
2022/09/09 13:11:28;;;;;;;6.78;0.77;;;27.30;54.90;;;;;;5077558;28;20020;-61
2022/09/09 13:13:56;;;;;;;3.83;0.90;;;26.90;60.90;;;;;;5078898;28;20348;-61
2022/09/09 13:16:32;;;;;;;3.28;0.60;;;25.90;67.90;;;;;;5080236;28;20027;-61